Time;durP1;ratioP1;P1;durP2;ratioP2;P2;SDS_P1;SDS_P2;PMS_P1;PMS_P2;Temp;Humidity;BMP_temperature;BMP_pressure;BME280_temperature;BME280_humidity;BME280_pressure;Samples;Min_cycle;Max_cycle;Signal;HPM_P1;HPM_P2
2022/07/13 04:01:06;;;;;;;2.70;2.50;;;14.20;99.90;;;;;;5624479;23;20513;-72
2022/07/13 04:03:31;;;;;;;3.75;2.70;;;14.20;99.90;;;;;;4958005;28;20047;-72
2022/07/13 04:05:57;;;;;;;3.78;2.50;;;14.30;99.90;;;;;;4957691;28;20036;-72
2022/07/13 04:08:22;;;;;;;2.60;2.40;;;14.20;99.90;;;;;;4951428;28;20478;-72
2022/07/13 04:10:48;;;;;;;4.93;3.00;;;14.10;99.90;;;;;;4936881;29;20387;-72
2022/07/13 04:13:13;;;;;;;5.40;2.50;;;14.20;99.90;;;;;;4938620;28;20044;-73
2022/07/13 04:15:39;;;;;;;2.72;2.53;;;14.20;99.90;;;;;;4939445;29;20036;-71
2022/07/13 04:18:05;;;;;;;3.28;2.42;;;14.20;99.90;;;;;;4936091;28;20551;-72
2022/07/13 04:20:30;;;;;;;2.88;2.58;;;14.20;99.90;;;;;;4931878;29;20093;-72
2022/07/13 04:22:56;;;;;;;3.15;2.25;;;14.20;99.90;;;;;;4919171;28;20092;-72
2022/07/13 04:25:21;;;;;;;2.85;2.65;;;14.20;99.90;;;;;;4919294;29;20032;-71
2022/07/13 04:27:47;;;;;;;3.10;2.63;;;14.20;99.90;;;;;;4944539;28;20510;-72
2022/07/13 04:30:12;;;;;;;4.18;2.70;;;14.20;99.90;;;;;;4937987;29;20075;-72
2022/07/13 04:32:38;;;;;;;4.50;2.80;;;14.20;99.90;;;;;;4920513;29;20045;-72
2022/07/13 04:35:04;;;;;;;3.03;2.25;;;14.30;99.90;;;;;;4918970;29;20052;-72
2022/07/13 04:37:30;;;;;;;3.97;2.60;;;14.30;99.90;;;;;;4923713;29;20072;-72
2022/07/13 04:39:55;;;;;;;3.22;2.92;;;14.30;99.90;;;;;;4920270;29;20064;-72
2022/07/13 04:42:21;;;;;;;3.75;2.60;;;14.40;99.90;;;;;;4933889;29;20047;-71
2022/07/13 04:44:46;;;;;;;5.05;2.33;;;14.40;99.90;;;;;;4938348;28;20398;-72
2022/07/13 04:47:11;;;;;;;2.47;2.28;;;14.40;99.90;;;;;;4938032;29;20043;-72
2022/07/13 04:49:37;;;;;;;3.80;2.40;;;14.50;99.90;;;;;;4923749;28;20028;-72
2022/07/13 04:52:03;;;;;;;2.50;2.15;;;14.60;99.90;;;;;;4948376;28;20036;-72
2022/07/13 04:54:28;;;;;;;2.80;2.30;;;14.70;99.90;;;;;;4935827;29;20102;-72
2022/07/13 04:56:54;;;;;;;3.58;2.15;;;14.90;99.90;;;;;;4938081;28;20052;-71
2022/07/13 04:59:19;;;;;;;3.55;2.30;;;15.10;99.90;;;;;;4937514;28;20079;-71
2022/07/13 05:01:45;;;;;;;2.78;2.15;;;15.30;99.90;;;;;;4927105;29;20043;-73
2022/07/13 05:04:10;;;;;;;3.72;2.00;;;15.50;99.90;;;;;;4919118;29;20195;-72
2022/07/13 05:06:36;;;;;;;4.78;2.63;;;15.70;99.90;;;;;;4936117;29;20112;-72
2022/07/13 05:09:02;;;;;;;4.60;2.83;;;15.90;99.90;;;;;;4928787;29;20052;-72
2022/07/13 05:11:27;;;;;;;3.03;2.30;;;16.00;99.90;;;;;;4925680;29;20532;-72
2022/07/13 05:13:53;;;;;;;3.55;2.22;;;16.20;99.90;;;;;;4938039;28;20071;-73
2022/07/13 05:16:19;;;;;;;4.90;2.42;;;16.40;99.90;;;;;;4928688;28;20092;-72
2022/07/13 05:18:45;;;;;;;3.92;2.17;;;16.60;99.90;;;;;;4936528;29;20044;-72
2022/07/13 05:21:11;;;;;;;3.42;2.20;;;16.80;99.90;;;;;;4932490;29;20047;-73
2022/07/13 05:23:37;;;;;;;5.15;2.50;;;17.00;99.90;;;;;;4918598;29;20033;-73
2022/07/13 05:26:03;;;;;;;3.00;2.20;;;17.10;99.90;;;;;;4917921;28;20096;-72
2022/07/13 05:28:29;;;;;;;3.17;2.05;;;17.20;99.90;;;;;;4933935;29;20143;-72
2022/07/13 05:30:56;;;;;;;4.78;2.42;;;17.40;99.90;;;;;;4919095;29;20128;-72
2022/07/13 05:33:22;;;;;;;3.05;2.13;;;17.50;99.90;;;;;;4936282;29;20040;-72
2022/07/13 05:35:48;;;;;;;3.10;2.33;;;17.70;99.90;;;;;;4937908;29;20039;-73
2022/07/13 05:38:13;;;;;;;10.98;2.10;;;17.90;99.90;;;;;;4931202;29;20053;-72
2022/07/13 05:40:39;;;;;;;1.85;1.75;;;18.10;99.90;;;;;;4922622;29;20040;-73
2022/07/13 05:43:05;;;;;;;2.70;2.00;;;18.30;99.90;;;;;;4932753;28;20498;-73
2022/07/13 05:45:31;;;;;;;2.80;1.88;;;18.50;99.90;;;;;;4938557;29;20131;-73
2022/07/13 05:47:57;;;;;;;2.17;1.92;;;18.50;99.90;;;;;;4934031;28;20357;-72
2022/07/13 05:50:22;;;;;;;3.70;1.95;;;18.60;99.90;;;;;;4917908;28;20403;-73
2022/07/13 05:52:48;;;;;;;3.10;2.00;;;18.80;99.90;;;;;;4918479;29;20049;-73
2022/07/13 05:55:13;;;;;;;4.40;2.00;;;19.00;99.90;;;;;;4926779;29;20032;-72
2022/07/13 05:57:40;;;;;;;7.25;2.05;;;19.10;99.90;;;;;;4937319;29;20051;-71
2022/07/13 06:00:10;;;;;;;2.88;1.90;;;19.20;99.90;;;;;;4936561;29;20044;-72
2022/07/13 06:02:36;;;;;;;3.50;2.05;;;19.40;99.90;;;;;;4935304;29;20051;-72
2022/07/13 06:05:02;;;;;;;3.88;1.90;;;19.60;99.90;;;;;;4926868;28;20421;-72
2022/07/13 06:07:27;;;;;;;1.92;1.60;;;19.90;99.90;;;;;;4937000;28;20092;-73
2022/07/13 06:09:53;;;;;;;3.05;1.80;;;20.00;99.90;;;;;;4936462;28;20043;-70
2022/07/13 06:12:19;;;;;;;4.72;1.70;;;19.90;99.90;;;;;;4918253;29;20043;-72
2022/07/13 06:14:44;;;;;;;2.38;1.70;;;19.90;99.90;;;;;;4921959;29;20036;-72
2022/07/13 06:17:10;;;;;;;2.80;1.70;;;19.90;99.90;;;;;;4918930;29;20044;-72
2022/07/13 06:19:36;;;;;;;1.90;1.70;;;19.90;99.90;;;;;;4918595;29;20040;-73
2022/07/13 06:22:02;;;;;;;2.80;1.70;;;19.80;99.90;;;;;;4917894;29;20494;-72
2022/07/13 06:24:27;;;;;;;4.03;1.98;;;19.80;99.90;;;;;;4918459;29;20033;-73
2022/07/13 06:26:53;;;;;;;3.28;1.60;;;19.90;99.90;;;;;;4918189;29;20376;-72
2022/07/13 06:29:18;;;;;;;3.67;1.70;;;19.80;99.90;;;;;;4916571;29;20499;-72
2022/07/13 06:31:44;;;;;;;1.95;1.65;;;19.60;99.90;;;;;;4916529;29;20036;-72
2022/07/13 06:34:10;;;;;;;4.18;2.35;;;19.50;99.90;;;;;;4918134;29;20040;-72
2022/07/13 06:36:36;;;;;;;4.22;1.90;;;19.30;99.90;;;;;;4916090;29;20510;-72
2022/07/13 06:39:02;;;;;;;4.63;2.10;;;19.20;99.90;;;;;;4918076;29;20048;-72
2022/07/13 06:41:27;;;;;;;2.95;1.83;;;19.10;99.90;;;;;;4917696;29;20039;-72
2022/07/13 06:43:53;;;;;;;4.45;1.90;;;19.20;99.90;;;;;;4917965;29;20487;-72
2022/07/13 06:46:18;;;;;;;4.90;1.90;;;19.30;99.90;;;;;;4917631;29;20041;-72
2022/07/13 06:48:44;;;;;;;2.72;1.80;;;19.30;99.90;;;;;;4918319;29;20127;-72
2022/07/13 06:51:09;;;;;;;4.20;1.65;;;19.50;99.90;;;;;;4916534;29;20040;-72
2022/07/13 06:53:35;;;;;;;2.53;1.70;;;19.60;99.90;;;;;;4918397;29;20056;-72
2022/07/13 06:56:01;;;;;;;3.05;1.80;;;19.70;99.90;;;;;;4917460;29;20032;-73
2022/07/13 06:58:26;;;;;;;2.97;1.70;;;19.90;99.90;;;;;;4917926;29;20186;-73
2022/07/13 07:00:52;;;;;;;2.97;1.95;;;20.20;99.90;;;;;;4917067;29;20047;-73
2022/07/13 07:03:18;;;;;;;5.97;1.98;;;20.50;99.90;;;;;;4917908;29;20460;-72
2022/07/13 07:05:44;;;;;;;3.90;1.63;;;20.70;99.90;;;;;;4917776;29;20523;-72
2022/07/13 07:08:09;;;;;;;6.85;2.25;;;20.90;99.90;;;;;;4917348;29;20072;-73
2022/07/13 07:10:35;;;;;;;3.75;1.80;;;21.00;99.90;;;;;;4917264;29;20115;-73
2022/07/13 07:13:00;;;;;;;4.10;2.08;;;21.20;99.90;;;;;;4917785;29;20063;-72
2022/07/13 07:15:26;;;;;;;7.35;1.92;;;21.40;99.90;;;;;;4917463;29;20036;-72
2022/07/13 07:17:51;;;;;;;3.03;1.90;;;21.80;99.60;;;;;;4920365;29;20053;-72
2022/07/13 07:20:17;;;;;;;3.05;1.67;;;22.20;98.70;;;;;;4920325;29;20479;-71
2022/07/13 07:22:45;;;;;;;4.20;1.73;;;22.60;99.10;;;;;;4920234;29;20514;-72
2022/07/13 07:25:11;;;;;;;3.38;1.60;;;23.10;97.70;;;;;;4918973;29;20033;-71
2022/07/13 07:27:40;;;;;;;2.35;1.80;;;23.60;95.70;;;;;;4920289;29;20089;-71
2022/07/13 07:30:06;;;;;;;3.60;1.50;;;23.70;94.60;;;;;;4919127;29;20036;-72
2022/07/13 07:32:32;;;;;;;3.90;1.63;;;24.20;94.10;;;;;;4920439;29;20100;-72
2022/07/13 07:34:58;;;;;;;2.30;1.48;;;24.50;93.80;;;;;;4920900;29;20032;-72
2022/07/13 07:37:24;;;;;;;3.95;1.50;;;24.70;93.50;;;;;;4919584;29;20127;-72
2022/07/13 07:39:50;;;;;;;8.10;1.88;;;24.70;93.00;;;;;;4920259;29;20069;-72
2022/07/13 07:42:16;;;;;;;4.55;1.80;;;24.60;93.20;;;;;;4920090;29;20064;-72
2022/07/13 07:44:41;;;;;;;2.80;1.60;;;24.50;91.20;;;;;;4920089;29;20502;-72
2022/07/13 07:47:08;;;;;;;5.03;1.58;;;24.20;92.10;;;;;;4919867;29;20040;-72
2022/07/13 07:49:34;;;;;;;4.38;1.40;;;24.20;92.90;;;;;;4919786;29;20073;-72
2022/07/13 07:52:00;;;;;;;5.90;1.60;;;24.40;93.20;;;;;;4919550;29;20040;-72
2022/07/13 07:54:25;;;;;;;3.03;1.52;;;25.20;91.70;;;;;;4920088;29;20033;-72
2022/07/13 07:56:51;;;;;;;2.17;1.40;;;26.00;89.80;;;;;;4919697;29;20045;-72
2022/07/13 07:59:17;;;;;;;1.15;1.02;;;26.70;88.70;;;;;;4919684;29;20128;-72
2022/07/13 08:01:42;;;;;;;2.65;1.33;;;27.10;83.40;;;;;;4919560;29;20037;-72
2022/07/13 08:04:08;;;;;;;3.72;1.50;;;27.10;81.70;;;;;;4919462;29;20043;-72
2022/07/13 08:06:34;;;;;;;1.88;0.90;;;26.80;88.10;;;;;;4919694;29;20072;-72
2022/07/13 08:09:00;;;;;;;3.83;1.17;;;26.90;83.30;;;;;;4919982;29;20093;-71
2022/07/13 08:11:26;;;;;;;2.03;1.15;;;27.10;85.30;;;;;;4919435;29;20036;-70
2022/07/13 08:13:52;;;;;;;2.75;1.17;;;27.10;83.10;;;;;;4919831;29;20063;-71
2022/07/13 08:16:17;;;;;;;4.75;1.27;;;27.20;80.60;;;;;;4919452;29;20075;-71
2022/07/13 08:18:44;;;;;;;3.63;1.25;;;27.10;84.90;;;;;;4919254;29;20045;-71
2022/07/13 08:21:10;;;;;;;7.32;1.20;;;26.80;84.80;;;;;;4919422;29;20084;-72
2022/07/13 08:26:27;;;;;;;3.08;1.35;;;26.60;87.10;;;;;;4919546;29;20750;-72
2022/07/13 08:28:57;;;;;;;3.83;1.67;;;26.50;86.40;;;;;;4919387;29;20037;-73
2022/07/13 08:31:23;;;;;;;4.38;1.48;;;26.60;88.00;;;;;;4919276;29;20491;-73
2022/07/13 08:39:19;;;;;;;3.03;1.67;;;27.60;82.70;;;;;;4919531;29;20049;-73
2022/07/13 08:41:45;;;;;;;5.35;1.08;;;27.90;80.20;;;;;;4919189;29;20041;-72
2022/07/13 08:44:11;;;;;;;6.63;1.30;;;28.30;79.20;;;;;;4919676;29;20040;-72
2022/07/13 08:46:38;;;;;;;4.47;1.10;;;28.50;76.40;;;;;;4919407;29;20045;-72
2022/07/13 08:49:04;;;;;;;4.20;1.25;;;28.60;75.40;;;;;;4919212;29;20042;-72
2022/07/13 08:51:32;;;;;;;4.65;1.70;;;28.50;75.90;;;;;;4919248;29;20086;-72
2022/07/13 08:53:58;;;;;;;2.40;1.25;;;28.60;75.30;;;;;;4919178;29;20533;-72
2022/07/13 08:56:24;;;;;;;1.48;1.05;;;29.20;71.50;;;;;;4918551;29;20048;-72
2022/07/13 08:58:52;;;;;;;1.77;1.10;;;29.60;71.20;;;;;;4919127;29;20052;-72
2022/07/13 09:01:19;;;;;;;3.63;1.10;;;29.90;69.60;;;;;;4918715;29;20032;-72
2022/07/13 09:03:44;;;;;;;4.28;1.40;;;29.60;67.70;;;;;;4919154;29;20037;-72
2022/07/13 09:06:39;;;;;;;2.78;1.20;;;29.40;71.60;;;;;;4919074;29;20037;-72
2022/07/13 09:09:22;;;;;;;2.67;1.10;;;28.80;70.40;;;;;;4918684;29;20036;-72
2022/07/13 09:11:48;;;;;;;3.30;1.00;;;28.40;71.40;;;;;;4918900;29;20041;-72
2022/07/13 09:14:26;;;;;;;1.05;0.90;;;28.50;70.00;;;;;;4918967;29;20044;-72
2022/07/13 09:16:52;;;;;;;1.35;1.10;;;28.60;68.20;;;;;;4918460;29;20403;-73
2022/07/13 09:19:24;;;;;;;2.70;0.93;;;29.10;67.10;;;;;;4918528;29;20036;-72
2022/07/13 09:21:49;;;;;;;1.23;1.02;;;29.40;64.20;;;;;;4918802;29;20035;-72
2022/07/13 09:24:15;;;;;;;2.55;0.93;;;29.50;63.20;;;;;;4918951;29;20040;-72
2022/07/13 09:26:47;;;;;;;2.15;1.00;;;29.50;64.30;;;;;;4918077;29;20032;-72
2022/07/13 09:29:13;;;;;;;3.20;0.90;;;29.70;61.40;;;;;;4918406;29;20234;-72
2022/07/13 09:31:50;;;;;;;2.78;1.00;;;29.80;60.40;;;;;;4916647;29;20036;-72
2022/07/13 09:34:16;;;;;;;1.05;0.90;;;30.00;62.00;;;;;;4918691;29;20036;-72
2022/07/13 09:36:42;;;;;;;1.35;0.90;;;30.30;60.60;;;;;;4918430;29;20047;-72
2022/07/13 09:39:11;;;;;;;1.52;0.70;;;30.40;58.20;;;;;;4917768;29;20055;-72
2022/07/13 09:41:37;;;;;;;2.45;1.40;;;30.70;56.20;;;;;;4918298;29;20035;-72
2022/07/13 09:47:06;;;;;;;4.43;0.90;;;30.30;57.80;;;;;;4916360;29;20041;-72
2022/07/13 09:49:35;;;;;;;2.20;1.00;;;30.40;56.70;;;;;;4918360;29;20032;-72
2022/07/13 09:52:04;;;;;;;1.70;0.98;;;30.40;58.00;;;;;;4918231;29;20399;-72
2022/07/13 09:54:31;;;;;;;0.90;0.90;;;30.70;56.30;;;;;;4917950;29;20124;-72
2022/07/13 09:56:59;;;;;;;1.35;0.80;;;31.10;55.20;;;;;;4917796;29;20044;-72
2022/07/13 09:59:30;;;;;;;1.27;0.98;;;31.30;54.60;;;;;;4917926;29;20080;-72
2022/07/13 10:01:56;;;;;;;1.63;0.90;;;31.20;55.20;;;;;;4917538;29;20056;-72
2022/07/13 10:04:22;;;;;;;2.58;0.75;;;31.40;53.20;;;;;;4917765;29;20044;-72
2022/07/13 10:06:49;;;;;;;1.00;0.85;;;31.60;52.60;;;;;;4917906;29;20096;-72
2022/07/13 10:11:51;;;;;;;2.35;0.80;;;31.60;53.60;;;;;;4917230;29;20081;-72
2022/07/13 10:14:18;;;;;;;3.22;0.70;;;31.30;54.00;;;;;;4918208;29;20491;-73
2022/07/13 10:16:44;;;;;;;1.45;0.98;;;31.50;55.10;;;;;;4973072;23;20054;-73
2022/07/13 10:19:11;;;;;;;3.03;0.90;;;31.50;52.30;;;;;;4955933;28;20096;-72
2022/07/13 10:21:54;;;;;;;2.70;0.80;;;31.50;53.50;;;;;;4956129;28;20031;-73
2022/07/13 10:24:20;;;;;;;3.15;1.10;;;31.50;54.40;;;;;;4956124;28;20042;-73
2022/07/13 10:26:49;;;;;;;3.67;1.02;;;31.80;53.90;;;;;;4955757;28;20031;-74
2022/07/13 10:29:15;;;;;;;1.90;1.23;;;31.90;52.70;;;;;;4955883;28;20032;-73
2022/07/13 10:31:42;;;;;;;1.08;0.88;;;32.10;52.30;;;;;;4956135;28;20079;-72
2022/07/13 10:34:10;;;;;;;3.15;1.10;;;32.30;53.00;;;;;;4956075;28;20040;-73
2022/07/13 10:36:57;;;;;;;1.42;0.88;;;32.90;51.20;;;;;;4955598;28;20047;-72
2022/07/13 10:39:28;;;;;;;1.95;1.00;;;33.80;49.80;;;;;;4955729;28;20458;-73
2022/07/13 10:41:59;;;;;;;2.65;0.82;;;34.40;50.00;;;;;;4954156;28;20031;-73
2022/07/13 10:44:43;;;;;;;3.35;0.77;;;34.60;44.30;;;;;;4954517;28;20494;-73
2022/07/13 10:47:13;;;;;;;1.13;0.90;;;34.70;43.90;;;;;;4955723;28;20075;-73
2022/07/13 10:49:47;;;;;;;0.77;0.77;;;33.80;42.60;;;;;;4954474;28;20062;-73
2022/07/13 10:52:22;;;;;;;1.30;0.80;;;33.80;43.90;;;;;;4960064;28;20394;-73
2022/07/13 10:55:03;;;;;;;1.15;0.60;;;34.20;42.80;;;;;;4959168;28;20071;-73
2022/07/13 10:57:29;;;;;;;1.92;0.85;;;34.20;42.00;;;;;;4958663;28;20044;-73
2022/07/13 11:00:00;;;;;;;0.95;0.80;;;34.40;42.90;;;;;;4959099;28;20031;-73
2022/07/13 11:02:50;;;;;;;1.48;0.70;;;34.20;43.90;;;;;;4959245;28;20762;-73
2022/07/13 11:05:26;;;;;;;1.33;0.80;;;34.40;42.90;;;;;;4958958;28;20032;-72
2022/07/13 11:07:52;;;;;;;4.88;0.98;;;34.60;45.90;;;;;;4958850;28;20035;-73
2022/07/13 11:10:25;;;;;;;2.55;1.00;;;34.40;47.10;;;;;;4958867;28;20724;-73
2022/07/13 11:13:03;;;;;;;1.00;0.90;;;34.30;46.30;;;;;;4957496;28;20091;-74
2022/07/13 11:15:48;;;;;;;3.80;0.80;;;34.20;46.60;;;;;;4956593;28;20032;-73
2022/07/13 11:18:22;;;;;;;1.45;0.70;;;34.50;46.50;;;;;;4958519;28;20067;-73
2022/07/13 11:21:02;;;;;;;1.40;0.80;;;34.30;45.80;;;;;;4958828;28;20032;-73
2022/07/13 11:26:38;;;;;;;2.25;0.90;;;34.30;45.00;;;;;;4957733;28;20036;-73
2022/07/13 11:29:22;;;;;;;5.28;0.80;;;34.60;42.40;;;;;;4958451;28;20040;-73
2022/07/13 11:32:03;;;;;;;1.00;0.90;;;34.70;41.20;;;;;;4958775;28;20118;-73
2022/07/13 11:34:30;;;;;;;4.65;0.90;;;35.20;41.40;;;;;;4958243;28;20461;-73
2022/07/13 11:36:58;;;;;;;3.53;0.90;;;35.40;42.40;;;;;;4957567;28;20379;-72
2022/07/13 11:39:34;;;;;;;4.65;1.10;;;35.50;42.10;;;;;;4958244;28;20043;-73
2022/07/13 11:42:02;;;;;;;4.20;0.77;;;35.90;41.20;;;;;;4941013;28;20155;-73
2022/07/13 11:44:32;;;;;;;3.42;1.10;;;36.40;40.00;;;;;;4958217;28;20043;-73
2022/07/13 11:47:00;;;;;;;4.03;0.90;;;36.70;39.90;;;;;;4958038;28;20478;-73
2022/07/13 11:49:27;;;;;;;2.33;0.90;;;36.00;41.00;;;;;;4958222;28;20031;-73
2022/07/13 11:51:53;;;;;;;1.92;0.80;;;36.00;38.90;;;;;;4956794;28;20046;-73
2022/07/13 11:54:22;;;;;;;0.65;0.60;;;35.80;41.30;;;;;;4958192;28;20040;-73
2022/07/13 11:56:51;;;;;;;3.60;0.90;;;36.00;39.80;;;;;;4957446;28;20441;-73
2022/07/13 11:59:40;;;;;;;2.45;0.70;;;36.20;41.70;;;;;;4957868;28;20155;-73
2022/07/13 12:02:11;;;;;;;2.25;0.90;;;36.20;40.30;;;;;;4956008;28;20039;-73
2022/07/13 12:04:45;;;;;;;0.98;0.77;;;36.50;42.10;;;;;;4957815;28;20035;-73
2022/07/13 12:07:25;;;;;;;6.18;0.80;;;36.70;39.30;;;;;;4957801;28;20476;-73
2022/07/13 12:09:53;;;;;;;1.10;0.70;;;37.40;37.50;;;;;;4958169;28;20042;-75
2022/07/13 12:12:21;;;;;;;3.15;0.80;;;37.40;36.80;;;;;;4957893;28;20038;-74
2022/07/13 12:14:47;;;;;;;1.20;0.70;;;36.70;37.30;;;;;;4957246;28;20035;-74
2022/07/13 12:17:13;;;;;;;4.20;0.90;;;36.70;37.30;;;;;;4957707;28;20469;-73
2022/07/13 12:19:39;;;;;;;2.78;0.70;;;37.60;39.30;;;;;;4957823;28;20075;-73
2022/07/13 12:22:06;;;;;;;1.38;0.65;;;37.60;36.10;;;;;;4957553;28;20122;-73
2022/07/13 12:24:32;;;;;;;0.60;0.57;;;38.30;34.50;;;;;;4957898;28;20035;-74
2022/07/13 12:26:57;;;;;;;0.68;0.57;;;38.30;33.40;;;;;;4957280;28;20028;-73
2022/07/13 12:29:33;;;;;;;1.10;0.75;;;38.00;32.00;;;;;;4957718;28;20466;-71
2022/07/13 12:32:00;;;;;;;1.85;0.80;;;37.40;32.40;;;;;;4957667;28;20027;-71
2022/07/13 12:34:26;;;;;;;2.28;0.70;;;37.20;34.90;;;;;;4955896;28;20051;-71
2022/07/13 12:36:51;;;;;;;3.63;0.63;;;37.40;34.50;;;;;;4957213;28;20107;-72
2022/07/13 12:39:36;;;;;;;4.35;0.88;;;37.90;36.30;;;;;;4957468;28;20043;-71
2022/07/13 12:42:02;;;;;;;1.08;0.70;;;37.90;37.90;;;;;;4957684;28;20036;-71
2022/07/13 12:44:32;;;;;;;1.25;0.70;;;38.00;34.40;;;;;;4957492;28;20212;-71
2022/07/13 12:47:01;;;;;;;1.95;0.88;;;38.00;35.50;;;;;;4956541;28;20059;-71
2022/07/13 12:49:36;;;;;;;2.38;0.77;;;38.40;33.60;;;;;;4957324;28;20044;-71
2022/07/13 12:52:05;;;;;;;2.25;0.90;;;38.20;40.50;;;;;;4957004;28;20038;-71
2022/07/13 12:54:51;;;;;;;2.65;0.90;;;37.20;35.70;;;;;;4955733;28;20529;-71
2022/07/13 12:57:21;;;;;;;1.00;0.90;;;36.70;36.40;;;;;;4956771;28;20046;-71
2022/07/13 13:00:09;;;;;;;1.58;0.65;;;36.90;37.30;;;;;;4957299;28;20446;-71
2022/07/13 13:02:35;;;;;;;0.90;0.70;;;36.50;37.40;;;;;;4957089;28;20039;-71
2022/07/13 13:05:00;;;;;;;2.13;0.95;;;36.60;37.80;;;;;;4956819;28;20079;-71
2022/07/13 13:07:26;;;;;;;3.22;0.80;;;36.30;36.30;;;;;;4957044;28;20071;-72
2022/07/13 13:09:52;;;;;;;1.95;0.80;;;35.70;35.70;;;;;;4956875;28;20517;-71
2022/07/13 13:12:17;;;;;;;0.75;0.75;;;35.60;38.40;;;;;;4957303;28;20039;-71
2022/07/13 13:14:43;;;;;;;0.95;0.80;;;35.40;36.90;;;;;;4955424;28;20035;-71
2022/07/13 13:17:09;;;;;;;2.05;0.90;;;35.00;35.40;;;;;;4956736;28;20047;-70
2022/07/13 13:19:35;;;;;;;5.15;1.00;;;34.40;40.10;;;;;;4956712;28;20498;-71
2022/07/13 13:22:00;;;;;;;2.40;0.70;;;34.00;37.60;;;;;;4955236;28;20031;-71
2022/07/13 13:24:26;;;;;;;1.65;0.90;;;33.60;39.20;;;;;;4956785;28;20116;-71
2022/07/13 13:26:52;;;;;;;1.55;0.70;;;33.30;39.30;;;;;;4956052;28;20034;-72
2022/07/13 13:32:01;;;;;;;4.43;0.80;;;32.90;39.70;;;;;;4957084;28;20043;-70
2022/07/13 13:34:27;;;;;;;6.07;0.90;;;32.70;40.60;;;;;;4956898;28;20035;-71
2022/07/13 13:36:53;;;;;;;1.20;0.82;;;32.50;40.80;;;;;;4956173;28;20035;-71
2022/07/13 13:39:19;;;;;;;3.72;1.02;;;32.40;42.10;;;;;;4956647;28;20413;-71
2022/07/13 13:41:46;;;;;;;2.38;1.00;;;32.60;43.30;;;;;;4956401;28;20147;-71
2022/07/13 13:44:13;;;;;;;3.40;0.80;;;32.80;41.80;;;;;;4956595;28;20040;-71
2022/07/13 13:46:39;;;;;;;2.28;0.88;;;33.10;41.20;;;;;;4955999;28;20043;-71
2022/07/13 13:49:05;;;;;;;2.00;0.90;;;33.30;40.40;;;;;;4956540;28;20039;-71
2022/07/13 13:51:32;;;;;;;2.78;0.90;;;33.30;41.30;;;;;;4955997;28;20544;-71
2022/07/13 13:53:58;;;;;;;2.50;0.80;;;33.40;41.00;;;;;;4954911;28;20123;-72
2022/07/13 13:56:23;;;;;;;2.20;0.95;;;33.50;43.60;;;;;;4956086;28;20119;-70
2022/07/13 13:58:49;;;;;;;2.58;1.00;;;33.60;44.10;;;;;;4956105;28;20043;-70
2022/07/13 14:01:15;;;;;;;3.17;0.98;;;33.80;41.00;;;;;;4956419;28;20028;-71
2022/07/13 14:03:40;;;;;;;2.42;0.90;;;33.90;40.50;;;;;;4956319;28;20035;-71
2022/07/13 14:06:08;;;;;;;1.95;1.00;;;34.40;43.80;;;;;;4955556;28;20078;-71
2022/07/13 14:08:34;;;;;;;1.08;0.70;;;34.60;40.80;;;;;;4954736;28;20047;-71
2022/07/13 14:11:00;;;;;;;1.90;0.70;;;35.00;40.60;;;;;;4956240;28;20124;-71
2022/07/13 14:13:25;;;;;;;1.80;0.90;;;34.90;42.10;;;;;;4956248;28;20496;-70
2022/07/13 14:15:51;;;;;;;6.43;0.95;;;34.50;41.10;;;;;;4955278;28;20042;-71
2022/07/13 14:18:19;;;;;;;3.95;0.90;;;34.10;40.70;;;;;;4955906;28;20040;-71
2022/07/13 14:20:44;;;;;;;1.85;0.75;;;33.80;44.10;;;;;;4954669;28;20537;-71
2022/07/13 14:23:10;;;;;;;3.58;0.80;;;33.60;44.30;;;;;;4956187;28;20091;-71
2022/07/13 14:25:35;;;;;;;0.60;0.60;;;33.40;42.20;;;;;;4955171;28;20032;-72
2022/07/13 14:28:01;;;;;;;0.98;0.60;;;32.90;43.20;;;;;;4959038;28;20084;-71
2022/07/13 14:30:28;;;;;;;2.63;0.80;;;32.70;43.60;;;;;;4959323;28;20040;-70
2022/07/13 14:32:54;;;;;;;1.35;0.93;;;32.20;42.50;;;;;;4959318;28;20043;-71
2022/07/13 14:35:23;;;;;;;0.95;0.70;;;32.00;45.20;;;;;;4957616;28;20406;-72
2022/07/13 14:37:49;;;;;;;1.95;0.70;;;31.90;46.40;;;;;;4958990;28;20118;-71
2022/07/13 14:40:15;;;;;;;0.85;0.65;;;31.80;45.10;;;;;;4959273;28;20035;-70
2022/07/13 14:42:40;;;;;;;2.80;0.70;;;31.70;46.10;;;;;;4959181;28;20117;-71
2022/07/13 14:45:07;;;;;;;0.70;0.57;;;31.40;45.40;;;;;;4959204;28;20539;-70
2022/07/13 14:47:33;;;;;;;1.17;0.80;;;31.20;45.50;;;;;;4958861;28;20046;-71
2022/07/13 14:49:59;;;;;;;2.03;0.80;;;31.00;48.10;;;;;;4959301;28;20036;-70
2022/07/13 14:52:24;;;;;;;1.83;0.70;;;30.70;49.20;;;;;;4959267;28;20087;-70
2022/07/13 14:54:50;;;;;;;1.20;0.90;;;30.40;47.70;;;;;;4958831;28;20174;-70
2022/07/13 14:57:15;;;;;;;1.15;0.80;;;30.30;51.70;;;;;;4958604;28;20040;-73
2022/07/13 14:59:41;;;;;;;1.90;1.00;;;30.10;49.40;;;;;;4958920;28;20091;-73
2022/07/13 15:02:06;;;;;;;3.10;0.93;;;30.10;49.20;;;;;;4959076;28;20028;-73
2022/07/13 15:04:34;;;;;;;2.03;0.60;;;30.40;49.30;;;;;;4958918;28;20036;-73
2022/07/13 15:07:00;;;;;;;0.80;0.60;;;30.90;50.40;;;;;;4956911;28;20032;-73
2022/07/13 15:09:26;;;;;;;0.80;0.80;;;31.20;50.00;;;;;;4958606;28;20039;-73
2022/07/13 15:11:51;;;;;;;1.52;0.60;;;31.50;49.60;;;;;;4958915;28;20074;-73
2022/07/13 15:14:17;;;;;;;1.48;0.60;;;31.70;47.70;;;;;;4958900;28;20106;-73
2022/07/13 15:16:43;;;;;;;2.30;0.82;;;31.70;47.50;;;;;;4958125;28;20043;-73
2022/07/13 15:19:09;;;;;;;2.13;1.00;;;31.90;47.70;;;;;;4957044;28;20066;-74
2022/07/13 15:21:36;;;;;;;4.50;1.40;;;31.90;47.50;;;;;;4958768;28;20027;-74
2022/07/13 15:24:02;;;;;;;1.55;1.17;;;32.10;49.30;;;;;;4958595;28;20039;-73
2022/07/13 15:26:28;;;;;;;0.70;0.70;;;33.70;56.80;;;;;;4958299;28;20126;-74
2022/07/13 15:28:56;;;;;;;3.53;0.82;;;37.20;40.70;;;;;;4958525;28;20486;-74
2022/07/13 15:31:22;;;;;;;2.40;0.80;;;40.50;37.30;;;;;;4958477;28;20066;-71
2022/07/13 15:33:48;;;;;;;5.75;0.90;;;41.00;37.20;;;;;;4956953;28;20038;-71
2022/07/13 15:36:14;;;;;;;3.15;1.20;;;40.10;39.40;;;;;;4956265;28;20524;-73
2022/07/13 15:38:40;;;;;;;2.88;1.02;;;39.10;39.90;;;;;;4957580;28;20055;-71
2022/07/13 15:41:25;;;;;;;1.85;1.00;;;38.50;38.30;;;;;;4958465;28;20040;-71
2022/07/13 15:43:55;;;;;;;2.92;1.15;;;38.60;39.20;;;;;;4958123;28;20564;-71
2022/07/13 15:46:22;;;;;;;1.10;1.00;;;41.90;35.90;;;;;;4957711;28;20557;-71
2022/07/13 15:48:48;;;;;;;1.48;1.02;;;42.10;36.00;;;;;;4958234;28;20114;-72
2022/07/13 15:51:14;;;;;;;1.92;0.93;;;42.70;31.60;;;;;;4957737;28;20036;-71
2022/07/13 15:53:40;;;;;;;2.20;0.90;;;42.60;33.70;;;;;;4958325;28;20043;-73
2022/07/13 15:56:06;;;;;;;2.17;1.00;;;42.00;32.70;;;;;;4957367;28;20036;-72
2022/07/13 15:58:32;;;;;;;2.08;1.30;;;41.20;33.90;;;;;;4958043;28;20127;-71
2022/07/13 16:00:58;;;;;;;2.80;0.90;;;39.80;34.20;;;;;;4958039;28;20110;-72
2022/07/13 16:03:24;;;;;;;2.47;1.13;;;38.80;33.30;;;;;;4958441;28;20454;-71
2022/07/13 16:05:49;;;;;;;5.63;1.73;;;39.60;34.20;;;;;;4957639;28;20545;-71
2022/07/13 16:08:15;;;;;;;4.20;1.20;;;39.60;33.20;;;;;;4958037;28;20505;-71
2022/07/13 16:10:41;;;;;;;2.75;1.63;;;38.40;35.90;;;;;;4957397;28;20032;-74
2022/07/13 16:13:06;;;;;;;1.55;1.00;;;37.70;35.60;;;;;;4951966;28;20424;-71
2022/07/13 16:15:33;;;;;;;3.13;0.80;;;38.10;36.60;;;;;;4955175;28;20047;-71
2022/07/13 16:17:59;;;;;;;1.15;1.00;;;39.60;37.00;;;;;;4957906;28;20102;-71
2022/07/13 16:20:25;;;;;;;3.10;1.40;;;41.20;33.80;;;;;;4971414;23;20118;-72
2022/07/13 16:22:50;;;;;;;2.30;0.90;;;42.90;32.70;;;;;;4944488;28;20044;-73
2022/07/13 16:25:17;;;;;;;1.80;1.00;;;41.10;31.80;;;;;;4935987;29;20597;-73
2022/07/13 16:27:43;;;;;;;1.75;0.90;;;39.60;34.20;;;;;;4936376;28;20032;-74
2022/07/13 16:30:09;;;;;;;1.55;0.80;;;39.40;32.20;;;;;;4933619;28;20047;-74
2022/07/13 16:32:35;;;;;;;1.75;0.90;;;41.20;31.50;;;;;;4949703;28;20044;-74
2022/07/13 16:35:01;;;;;;;6.03;1.02;;;41.80;30.90;;;;;;4938594;28;20036;-73
2022/07/13 16:37:27;;;;;;;2.40;0.90;;;41.20;35.00;;;;;;4938331;29;20032;-73
2022/07/13 16:39:52;;;;;;;1.73;0.90;;;40.70;32.00;;;;;;4948340;28;20072;-73
2022/07/13 16:42:18;;;;;;;1.20;1.00;;;39.80;33.50;;;;;;4945939;28;20489;-73
2022/07/13 16:44:43;;;;;;;2.50;1.15;;;39.10;34.50;;;;;;4957541;28;20482;-73
2022/07/13 16:47:09;;;;;;;4.88;1.08;;;38.20;34.70;;;;;;4957453;28;20156;-73
2022/07/13 16:49:34;;;;;;;2.30;0.90;;;37.40;36.00;;;;;;4957216;28;20035;-73
2022/07/13 16:52:03;;;;;;;2.00;1.00;;;36.70;37.60;;;;;;4946477;28;20119;-73
2022/07/13 16:54:29;;;;;;;16.00;7.90;;;36.10;38.60;;;;;;4947655;28;20047;-73
2022/07/13 16:56:54;;;;;;;10.85;5.50;;;35.70;39.60;;;;;;4937596;29;20036;-73
2022/07/13 16:59:21;;;;;;;4.97;3.10;;;35.10;42.50;;;;;;4951999;28;20040;-73
2022/07/13 17:01:46;;;;;;;1.65;1.40;;;34.80;41.70;;;;;;4950422;28;20104;-74
2022/07/13 17:04:12;;;;;;;1.83;1.00;;;34.50;44.70;;;;;;4959536;28;20115;-74
2022/07/13 17:06:38;;;;;;;3.08;1.23;;;33.90;41.80;;;;;;4949266;28;20163;-73